Time;durP1;ratioP1;P1;durP2;ratioP2;P2;SDS_P1;SDS_P2;PMS_P1;PMS_P2;Temp;Humidity;BMP_temperature;BMP_pressure;BME280_temperature;BME280_humidity;BME280_pressure;Samples;Min_cycle;Max_cycle;Signal;HPM_P1;HPM_P2
2022/03/07 00:00:19;;;;;;;12.83;6.20;;;;;;;0.68;100.00;60880.03;5114675;28;20811;-77
2022/03/07 00:02:50;;;;;;;12.87;7.07;;;;;;;1.86;100.00;61002.19;5114889;28;20537;-75
2022/03/07 00:05:18;;;;;;;17.13;7.43;;;;;;;1.82;100.00;61007.97;5115885;28;20437;-76
2022/03/07 00:07:48;;;;;;;14.13;6.93;;;;;;;0.62;100.00;60876.72;5097368;28;20436;-74
2022/03/07 00:10:15;;;;;;;14.93;6.83;;;;;;;0.67;100.00;60879.50;5114950;28;20956;-73
2022/03/07 00:12:43;;;;;;;13.90;6.80;;;;;;;1.68;100.00;60988.09;5114850;28;20878;-74
2022/03/07 00:15:15;;;;;;;13.00;7.40;;;;;;;1.93;100.00;61009.63;5113897;28;20526;-76
2022/03/07 00:17:46;;;;;;;12.37;5.87;;;;;;;1.55;100.00;60969.28;5114722;28;20494;-76
2022/03/07 00:20:15;;;;;;;12.80;6.20;;;;;;;1.13;100.00;60925.25;5114623;28;20445;-76
2022/03/07 00:22:43;;;;;;;14.40;6.83;;;;;;;1.53;100.00;60967.16;5114264;28;20452;-73
2022/03/07 00:25:12;;;;;;;14.67;7.27;;;;;;;0.66;100.00;60878.47;5114536;28;20528;-75
2022/03/07 00:27:39;;;;;;;19.80;8.73;;;;;;;1.83;100.00;61001.53;5114346;28;20468;-74
2022/03/07 00:30:11;;;;;;;16.87;8.20;;;;;;;0.76;100.00;60884.06;5114389;28;20437;-75
2022/03/07 00:32:43;;;;;;;19.37;8.40;;;;;;;1.19;100.00;60933.59;5114019;28;20506;-73
2022/03/07 00:35:18;;;;;;;19.33;8.57;;;;;;;0.72;100.00;60881.78;5096640;28;20950;-75
2022/03/07 00:37:48;;;;;;;18.40;8.90;;;;;;;1.68;100.00;60983.06;5113539;28;20531;-75
2022/03/07 00:40:16;;;;;;;16.87;8.23;;;;;;;1.57;100.00;60976.44;5114049;28;20468;-76
2022/03/07 00:42:45;;;;;;;20.50;9.17;;;;;;;1.66;100.00;60980.97;5114905;28;20433;-73
2022/03/07 00:45:14;;;;;;;17.30;8.40;;;;;;;1.78;100.00;60993.69;5113966;28;20462;-75
2022/03/07 00:47:41;;;;;;;18.47;8.77;;;;;;;1.23;100.00;60935.34;5114018;28;20440;-74
2022/03/07 00:50:12;;;;;;;19.17;8.60;;;;;;;1.76;100.00;60991.56;5113318;28;20440;-74
2022/03/07 00:52:39;;;;;;;19.33;8.90;;;;;;;1.68;100.00;60988.09;5114028;28;20811;-75
2022/03/07 00:55:13;;;;;;;16.47;7.67;;;;;;;1.87;100.00;61000.22;5114264;28;20433;-76
2022/03/07 00:57:42;;;;;;;20.03;7.80;;;;;;;1.66;100.00;60980.97;5113814;28;20565;-75
2022/03/07 01:00:22;;;;;;;14.07;8.00;;;;;;;1.80;100.00;60995.81;5113803;28;20447;-77
2022/03/07 01:02:54;;;;;;;18.73;8.27;;;;;;;1.89;100.00;61004.84;5113536;28;20440;-74
2022/03/07 01:08:09;;;;;;;12.77;7.57;;;;;;;1.78;100.00;60998.72;5110562;28;20986;-76
2022/03/07 01:10:40;;;;;;;12.13;6.47;;;;;;;1.80;100.00;60998.31;5113542;28;20951;-74
2022/03/07 01:13:13;;;;;;;11.93;6.83;;;;;;;1.67;100.00;60987.03;5113576;28;20447;-74
2022/03/07 01:15:50;;;;;;;14.93;7.60;;;;;;;1.91;100.00;61007.50;5112840;28;20559;-74
2022/03/07 01:18:24;;;;;;;14.73;8.07;;;;;;;0.59;100.00;60873.53;5113781;28;20447;-73
2022/03/07 01:20:53;;;;;;;15.60;7.50;;;;;;;1.65;100.00;60982.41;5096032;28;20441;-74
2022/03/07 01:23:30;;;;;;;13.90;7.50;;;;;;;0.62;100.00;60871.72;5113449;28;20529;-74
2022/03/07 01:25:58;;;;;;;13.13;7.83;;;;;;;1.25;100.00;60932.44;5113319;28;20445;-74
2022/03/07 01:28:25;;;;;;;14.93;7.23;;;;;;;1.63;100.00;60977.78;5113959;28;20500;-75
2022/03/07 01:30:53;;;;;;;19.97;8.07;;;;;;;1.62;100.00;60976.72;5113239;28;20429;-75
2022/03/07 01:33:23;;;;;;;13.50;7.17;;;;;;;0.13;100.00;60819.78;5114206;28;20944;-75
2022/03/07 01:35:51;;;;;;;16.23;7.73;;;;;;;0.96;100.00;60911.72;5113186;28;20449;-74
2022/03/07 01:38:18;;;;;;;12.13;6.90;;;;;;;1.48;100.00;60961.84;5112655;28;21010;-77
2022/03/07 01:40:47;;;;;;;12.70;6.93;;;;;;;-0.06;100.00;60805.19;5112931;28;20457;-75
2022/03/07 01:43:21;;;;;;;13.10;7.33;;;;;;;1.63;100.00;60978.28;5112673;28;20795;-75
2022/03/07 01:45:48;;;;;;;12.90;7.07;;;;;;;1.63;100.00;60977.78;5094766;28;20459;-75
2022/03/07 01:48:18;;;;;;;12.13;6.60;;;;;;;1.68;100.00;60983.06;5112553;28;20433;-75
2022/03/07 01:50:45;;;;;;;11.20;6.93;;;;;;;1.70;100.00;60980.19;5112537;28;20524;-75
2022/03/07 01:53:21;;;;;;;14.97;7.37;;;;;;;1.58;100.00;60972.47;5113070;28;20498;-77
2022/03/07 01:55:49;;;;;;;11.20;7.00;;;;;;;1.60;100.00;60979.59;5113312;28;20460;-77
2022/03/07 01:58:18;;;;;;;13.60;7.40;;;;;;;0.97;100.00;60907.75;5112727;28;21010;-75
2022/03/07 02:00:51;;;;;;;13.17;7.30;;;;;;;1.56;100.00;60970.34;5112545;28;20453;-75
2022/03/07 02:03:21;;;;;;;14.90;7.63;;;;;;;1.70;100.00;60985.72;5112463;28;20456;-74
2022/03/07 02:05:49;;;;;;;11.50;6.17;;;;;;;1.68;100.00;60988.09;5113891;28;20449;-75
2022/03/07 02:08:21;;;;;;;12.33;6.40;;;;;;;1.65;100.00;60984.94;5114091;28;20444;-75
2022/03/07 02:10:53;;;;;;;13.07;6.13;;;;;;;1.62;100.00;60979.22;5113240;28;20468;-75
2022/03/07 02:13:22;;;;;;;11.63;6.60;;;;;;;1.61;100.00;60975.66;5112678;28;20440;-74
2022/03/07 02:15:57;;;;;;;11.67;5.97;;;;;;;1.72;100.00;60987.31;5112723;28;20841;-76
2022/03/07 02:18:24;;;;;;;9.80;5.80;;;;;;;1.55;100.00;60969.28;5113441;28;20484;-76
2022/03/07 02:20:57;;;;;;;9.37;5.70;;;;;;;0.36;100.00;60846.66;5112587;28;20965;-74
2022/03/07 02:23:27;;;;;;;9.40;5.97;;;;;;;0.13;100.00;60819.78;5112879;28;20462;-75
2022/03/07 02:25:56;;;;;;;10.33;5.90;;;;;;;0.18;100.00;60827.06;5112526;28;20452;-74
2022/03/07 02:28:25;;;;;;;9.13;5.67;;;;;;;1.77;100.00;60992.63;5112502;28;20476;-73
2022/03/07 02:30:53;;;;;;;10.60;5.53;;;;;;;1.60;100.00;60967.06;5112231;28;20433;-77
2022/03/07 02:33:24;;;;;;;11.27;6.30;;;;;;;1.69;100.00;60989.16;5112448;28;20935;-74
2022/03/07 02:35:54;;;;;;;9.90;6.00;;;;;;;1.71;100.00;60986.28;5112530;28;20501;-75
2022/03/07 02:38:28;;;;;;;12.77;5.90;;;;;;;0.00;100.00;60811.03;5112564;28;21017;-75
2022/03/07 02:40:58;;;;;;;12.03;5.20;;;;;;;1.65;100.00;60984.94;5094142;28;20439;-73
2022/03/07 02:43:26;;;;;;;12.83;6.23;;;;;;;1.43;100.00;60961.56;5112824;28;20441;-74
2022/03/07 02:45:58;;;;;;;12.83;6.43;;;;;;;0.94;100.00;60909.59;5094220;28;20441;-75
2022/03/07 02:48:25;;;;;;;13.07;8.10;;;;;;;0.48;100.00;60856.88;5112120;28;20828;-74
2022/03/07 02:50:55;;;;;;;19.20;9.00;;;;;;;1.82;100.00;60997.94;5111758;28;20460;-74
2022/03/07 02:53:24;;;;;;;21.37;9.80;;;;;;;1.88;100.00;61004.31;5112096;28;20437;-75
2022/03/07 02:55:58;;;;;;;18.13;8.57;;;;;;;1.87;100.00;61003.25;5111794;28;20468;-75
2022/03/07 02:58:26;;;;;;;18.50;8.70;;;;;;;1.60;100.00;60975.13;5112315;28;20928;-74
2022/03/07 03:00:55;;;;;;;15.33;7.57;;;;;;;0.71;100.00;60875.69;5114789;28;20790;-76
2022/03/07 03:03:23;;;;;;;11.93;6.27;;;;;;;0.82;100.00;60895.44;5116218;28;20436;-75
2022/03/07 03:05:54;;;;;;;15.00;7.37;;;;;;;1.52;100.00;60964.13;5116209;28;20871;-75
2022/03/07 03:08:23;;;;;;;12.97;7.00;;;;;;;1.71;100.00;60986.78;5116103;28;20523;-76
2022/03/07 03:10:53;;;;;;;12.83;7.00;;;;;;;1.44;100.00;60955.09;5115650;28;20604;-74
2022/03/07 03:13:24;;;;;;;16.50;7.10;;;;;;;1.00;100.00;60910.94;5115884;28;20528;-75
2022/03/07 03:15:52;;;;;;;12.23;7.33;;;;;;;1.26;100.00;60938.50;5115514;28;20472;-75
2022/03/07 03:18:21;;;;;;;14.70;7.50;;;;;;;1.62;100.00;60979.75;5116048;28;20543;-75
2022/03/07 03:20:55;;;;;;;11.47;6.60;;;;;;;1.56;100.00;60970.34;5115927;28;20428;-74
2022/03/07 03:23:23;;;;;;;11.23;6.87;;;;;;;1.43;100.00;60959.06;5116227;28;20813;-73
2022/03/07 03:25:53;;;;;;;11.63;6.40;;;;;;;1.54;100.00;60968.75;5115876;28;20825;-74
2022/03/07 03:28:25;;;;;;;10.80;6.17;;;;;;;1.53;100.00;60967.69;5116302;28;21051;-75
2022/03/07 03:30:54;;;;;;;10.03;5.60;;;;;;;0.35;100.00;60843.09;5115812;28;20468;-73
2022/03/07 03:33:21;;;;;;;10.60;6.00;;;;;;;1.61;100.00;60978.69;5115653;28;20534;-76
2022/03/07 03:35:49;;;;;;;10.90;5.63;;;;;;;1.57;100.00;60968.91;5115494;28;20461;-75
2022/03/07 03:38:16;;;;;;;9.67;5.87;;;;;;;1.35;100.00;60948.06;5115343;28;20557;-72
2022/03/07 03:40:47;;;;;;;12.33;5.83;;;;;;;1.64;100.00;60981.34;5115556;28;20975;-74
2022/03/07 03:43:14;;;;;;;8.27;5.30;;;;;;;1.74;100.00;60994.47;5115339;28;20492;-75
2022/03/07 03:45:43;;;;;;;9.90;5.37;;;;;;;1.67;100.00;60982.03;5116064;28;20951;-74
2022/03/07 03:48:15;;;;;;;8.67;5.10;;;;;;;0.70;100.00;60882.69;5115164;28;20448;-75
2022/03/07 03:50:49;;;;;;;8.87;5.53;;;;;;;1.43;100.00;60959.06;5115477;28;20947;-75
2022/03/07 03:53:16;;;;;;;8.97;5.50;;;;;;;-0.07;100.00;60801.09;5115231;28;20519;-76
2022/03/07 03:55:44;;;;;;;9.50;5.27;;;;;;;0.17;100.00;60829.03;5114782;28;20456;-76
2022/03/07 03:58:11;;;;;;;9.10;5.43;;;;;;;1.45;100.00;60958.69;5115025;28;20905;-75
2022/03/07 04:00:45;;;;;;;11.27;6.07;;;;;;;1.61;100.00;60976.16;5115073;28;20506;-75
2022/03/07 04:03:14;;;;;;;11.03;5.87;;;;;;;1.56;100.00;60973.38;5115017;28;20425;-73
2022/03/07 04:05:41;;;;;;;11.23;7.00;;;;;;;1.71;100.00;60988.78;5114974;28;20441;-76
2022/03/07 04:08:09;;;;;;;11.37;6.80;;;;;;;1.72;100.00;60982.31;5115388;28;20452;-75
2022/03/07 04:10:37;;;;;;;12.20;6.93;;;;;;;1.58;100.00;60969.97;5116186;28;20980;-74
2022/03/07 04:13:04;;;;;;;15.03;7.07;;;;;;;0.76;100.00;60886.03;5113893;28;20497;-75
2022/03/07 04:15:38;;;;;;;13.33;7.40;;;;;;;0.37;100.00;60840.19;5114498;28;20460;-74
2022/03/07 04:18:08;;;;;;;11.47;6.80;;;;;;;1.72;100.00;60987.31;5096636;28;20468;-74
2022/03/07 04:20:36;;;;;;;12.00;7.07;;;;;;;0.39;100.00;60852.34;5115367;28;20819;-76
2022/03/07 04:23:04;;;;;;;10.37;6.57;;;;;;;1.58;100.00;60974.97;5114756;28;20487;-74
2022/03/07 04:25:33;;;;;;;9.37;5.93;;;;;;;1.52;100.00;60969.16;5114906;28;20437;-76
2022/03/07 04:28:02;;;;;;;10.07;6.47;;;;;;;1.51;100.00;60965.03;5114025;28;20549;-75
2022/03/07 04:30:29;;;;;;;11.93;6.57;;;;;;;1.41;100.00;60956.94;5114462;28;20445;-76
2022/03/07 04:32:57;;;;;;;14.33;7.53;;;;;;;0.61;100.00;60875.66;5114273;28;20859;-75
2022/03/07 04:35:31;;;;;;;12.73;8.87;;;;;;;0.35;100.00;60843.09;5114415;28;20488;-75
2022/03/07 04:37:58;;;;;;;11.67;6.73;;;;;;;1.65;100.00;60979.91;5114360;28;21159;-76
2022/03/07 04:40:29;;;;;;;11.03;5.90;;;;;;;1.72;100.00;60992.34;5096451;28;20532;-77
2022/03/07 04:43:03;;;;;;;11.80;6.87;;;;;;;1.61;100.00;60975.66;5114323;28;20476;-74
2022/03/07 04:48:33;;;;;;;11.00;7.33;;;;;;;1.84;100.00;61004.53;5113279;28;20527;-75
2022/03/07 04:51:07;;;;;;;12.20;6.43;;;;;;;0.76;100.00;60891.56;5114138;28;20433;-75
2022/03/07 04:53:37;;;;;;;12.53;7.10;;;;;;;1.75;100.00;60989.97;5114214;28;20425;-76
2022/03/07 04:56:06;;;;;;;15.73;6.93;;;;;;;1.73;100.00;60988.41;5114101;28;20436;-75
2022/03/07 04:58:33;;;;;;;14.30;7.73;;;;;;;1.80;100.00;60997.78;5113983;28;20484;-74
2022/03/07 05:01:00;;;;;;;13.50;7.90;;;;;;;1.83;100.00;60993.97;5114137;28;20822;-75
2022/03/07 05:03:29;;;;;;;13.67;7.67;;;;;;;1.35;100.00;60950.56;5095991;28;20876;-75
2022/03/07 05:05:58;;;;;;;13.40;7.50;;;;;;;1.97;100.00;61013.34;5113788;28;20449;-76
2022/03/07 05:08:32;;;;;;;11.63;7.00;;;;;;;1.50;100.00;60966.47;5113929;28;20914;-76
2022/03/07 05:10:59;;;;;;;15.13;8.33;;;;;;;0.96;100.00;60906.69;5113694;28;20440;-73
2022/03/07 05:13:30;;;;;;;16.13;7.63;;;;;;;-0.12;100.00;60800.81;5113083;28;20444;-74
2022/03/07 05:15:57;;;;;;;27.00;16.90;;;;;;;2.04;100.00;61021.28;5113735;27;20506;-77
2022/03/07 05:18:25;;;;;;;52.53;26.90;;;;;;;1.90;100.00;61006.44;5095108;28;20505;-75
2022/03/07 05:20:56;;;;;;;25.70;15.20;;;;;;;1.94;100.00;61013.19;5113520;28;20445;-76
2022/03/07 05:23:26;;;;;;;12.40;8.20;;;;;;;0.36;100.00;60844.16;5112619;28;20444;-75
2022/03/07 05:25:55;;;;;;;13.27;7.80;;;;;;;1.93;100.00;61009.63;5113500;28;20806;-75
2022/03/07 05:28:25;;;;;;;13.30;8.57;;;;;;;1.41;100.00;60954.44;5113301;28;20476;-74
2022/03/07 05:30:54;;;;;;;11.83;7.40;;;;;;;1.95;100.00;61011.75;5113334;28;20428;-76
2022/03/07 05:33:29;;;;;;;11.67;6.47;;;;;;;1.91;100.00;61007.50;5113136;28;20436;-78
2022/03/07 05:35:57;;;;;;;9.40;6.13;;;;;;;2.03;100.00;61024.72;5094681;28;20443;-74
2022/03/07 05:38:24;;;;;;;10.70;6.43;;;;;;;2.13;100.00;61030.84;5112453;28;20496;-75
2022/03/07 05:40:52;;;;;;;11.60;6.33;;;;;;;2.24;100.00;61042.00;5094834;28;20947;-74
2022/03/07 05:43:21;;;;;;;15.60;8.47;;;;;;;2.28;100.00;61049.28;5112598;28;20987;-74
2022/03/07 05:45:51;;;;;;;14.07;8.97;;;;;;;1.76;100.00;60991.56;5112969;28;20966;-76
2022/03/07 05:48:19;;;;;;;12.27;7.33;;;;;;;2.55;100.00;61074.94;5094743;28;20451;-75
2022/03/07 05:50:50;;;;;;;10.67;6.70;;;;;;;2.30;100.00;61048.38;5112555;28;20441;-75
2022/03/07 05:53:21;;;;;;;12.80;8.13;;;;;;;2.04;100.00;61023.81;5112761;28;20448;-75
2022/03/07 05:55:50;;;;;;;14.27;8.20;;;;;;;2.24;100.00;61045.03;5112873;28;20437;-75
2022/03/07 05:58:21;;;;;;;14.80;8.60;;;;;;;2.42;100.00;61063.63;5113362;28;20475;-74
2022/03/07 06:00:52;;;;;;;19.53;10.63;;;;;;;2.24;100.00;61047.56;5094234;28;20448;-78
2022/03/07 06:03:21;;;;;;;18.63;9.53;;;;;;;2.44;100.00;61063.78;5112368;28;20885;-77
2022/03/07 06:05:50;;;;;;;16.63;9.47;;;;;;;2.35;100.00;61056.72;5112966;28;20433;-75
2022/03/07 06:08:21;;;;;;;16.53;8.97;;;;;;;2.24;100.00;61045.03;5112731;28;20946;-76
2022/03/07 06:10:50;;;;;;;13.40;8.40;;;;;;;2.39;100.00;61057.94;5112628;28;20525;-76
2022/03/07 06:13:19;;;;;;;13.17;8.00;;;;;;;2.05;100.00;61021.81;5111953;28;20543;-75
2022/03/07 06:15:48;;;;;;;14.03;7.53;;;;;;;2.32;100.00;61051.03;5112281;28;20989;-75
2022/03/07 06:18:15;;;;;;;15.27;8.70;;;;;;;2.38;100.00;61061.88;5113530;28;20468;-75
2022/03/07 06:20:44;;;;;;;14.47;8.57;;;;;;;1.02;100.00;60918.59;5112734;28;20493;-76
2022/03/07 06:23:12;;;;;;;18.43;9.00;;;;;;;2.34;100.00;61053.16;5112490;28;20451;-74
2022/03/07 06:25:41;;;;;;;10.07;6.33;;;;;;;1.89;100.00;61004.84;5112691;28;20444;-74
2022/03/07 06:28:11;;;;;;;13.43;8.07;;;;;;;1.63;100.00;60982.81;5112444;28;20952;-74
2022/03/07 06:30:48;;;;;;;14.87;9.33;;;;;;;2.39;100.00;61057.94;5112955;28;20978;-76
2022/03/07 06:33:20;;;;;;;31.93;17.40;;;;;;;2.12;100.00;61032.28;5112511;28;20527;-73
2022/03/07 06:35:50;;;;;;;40.40;20.10;;;;;;;2.00;100.00;61017.03;5112506;28;20939;-75
2022/03/07 06:38:19;;;;;;;16.03;9.10;;;;;;;0.62;100.00;60871.72;5112646;28;20553;-75
2022/03/07 06:40:57;;;;;;;9.00;5.40;;;;;;;1.93;100.00;61012.13;5112400;28;20799;-72
2022/03/07 06:43:46;;;;;;;10.87;5.20;;;;;;;1.90;100.00;61008.41;5112240;28;20440;-76
2022/03/07 06:46:17;;;;;;;21.33;11.00;;;;;;;1.86;100.00;61002.19;5111914;28;20433;-76
2022/03/07 06:48:49;;;;;;;18.33;6.97;;;;;;;1.85;100.00;61006.16;5112677;28;20433;-75
2022/03/07 06:51:20;;;;;;;23.97;10.97;;;;;;;1.80;100.00;61000.84;5112109;28;21003;-76
2022/03/07 06:53:47;;;;;;;17.30;9.07;;;;;;;1.62;100.00;60976.72;5111819;28;20453;-75
2022/03/07 06:56:17;;;;;;;13.87;7.97;;;;;;;1.64;100.00;60981.34;5094010;28;20433;-73
2022/03/07 06:58:45;;;;;;;13.30;6.73;;;;;;;1.40;100.00;60953.38;5112122;28;20533;-73
2022/03/07 07:01:13;;;;;;;15.53;8.43;;;;;;;1.72;100.00;60989.84;5111760;28;20525;-74
2022/03/07 07:03:41;;;;;;;16.20;6.77;;;;;;;1.30;100.00;60947.78;5111822;28;20509;-74
2022/03/07 07:06:14;;;;;;;12.37;7.17;;;;;;;1.79;100.00;60997.28;5112342;28;20444;-75
2022/03/07 07:08:42;;;;;;;12.67;4.87;;;;;;;1.13;100.00;60934.75;5112334;28;20867;-73
2022/03/07 07:11:10;;;;;;;10.47;6.07;;;;;;;2.02;100.00;61019.16;5111855;28;20624;-75
2022/03/07 07:13:38;;;;;;;27.53;12.10;;;;;;;2.15;100.00;61035.50;5112574;28;20441;-74
2022/03/07 07:16:16;;;;;;;16.37;7.43;;;;;;;2.08;100.00;61025.53;5112990;28;20482;-75
2022/03/07 07:18:53;;;;;;;10.10;6.30;;;;;;;1.91;100.00;61005.00;5113560;28;20823;-75
2022/03/07 07:21:23;;;;;;;17.50;7.90;;;;;;;2.15;100.00;61032.97;5112768;28;20443;-75
2022/03/07 07:23:56;;;;;;;13.70;7.57;;;;;;;2.42;100.00;61061.66;5111916;28;20440;-75
2022/03/07 07:26:25;;;;;;;18.57;8.97;;;;;;;1.41;100.00;60964.47;5111914;28;20517;-76
2022/03/07 07:28:54;;;;;;;20.43;8.20;;;;;;;2.95;100.00;61121.91;5111753;28;20480;-74
2022/03/07 07:31:30;;;;;;;16.40;7.33;;;;;;;3.18;100.00;61146.38;5111564;28;20441;-77
2022/03/07 07:33:58;;;;;;;11.70;6.80;;;;;;;2.85;100.00;61111.28;5111926;28;20448;-76
2022/03/07 07:36:28;;;;;;;15.20;6.93;;;;;;;2.12;100.00;61029.78;5111871;28;20445;-75
2022/03/07 07:38:57;;;;;;;17.40;9.33;;;;;;;3.39;100.00;61163.66;5094105;28;20490;-74
2022/03/07 07:41:25;;;;;;;16.13;8.97;;;;;;;3.61;100.00;61184.53;5111764;28;20498;-76
2022/03/07 07:43:55;;;;;;;13.13;8.20;;;;;;;3.65;100.00;61191.31;5093932;28;20436;-75
2022/03/07 07:49:05;;;;;;;18.83;7.33;;;;;;;2.98;100.00;61120.09;5115118;28;20444;-75
2022/03/07 07:51:35;;;;;;;12.77;6.87;;;;;;;3.10;100.00;61137.88;5115055;28;20792;-74
2022/03/07 07:54:03;;;;;;;16.80;6.27;;;;;;;3.79;100.00;61208.19;5115116;28;20539;-75
2022/03/07 07:56:38;;;;;;;32.37;14.43;;;;;;;3.89;100.00;61216.84;5115123;28;20445;-76
2022/03/07 07:59:06;;;;;;;13.60;6.83;;;;;;;3.83;100.00;61209.91;5115065;28;20475;-76
2022/03/07 08:01:34;;;;;;;9.93;6.03;;;;;;;3.58;100.00;61183.88;5114963;28;20473;-74
2022/03/07 08:04:04;;;;;;;20.57;5.50;;;;;;;3.51;100.00;61176.41;5116012;28;20436;-77
2022/03/07 08:06:35;;;;;;;7.53;4.13;;;;;;;3.80;100.00;61207.28;5115194;28;20440;-75
2022/03/07 08:09:04;;;;;;;11.00;4.80;;;;;;;4.23;100.00;61255.53;5116169;28;20805;-76
2022/03/07 08:11:33;;;;;;;17.10;8.60;;;;;;;4.34;100.00;61263.66;5114753;28;20502;-75
2022/03/07 08:14:03;;;;;;;8.20;5.20;;;;;;;4.46;100.00;61276.44;5096962;28;20460;-74
2022/03/07 08:16:32;;;;;;;8.87;4.40;;;;;;;3.41;100.00;61165.78;5115505;28;20528;-76
2022/03/07 08:19:08;;;;;;;7.97;5.00;;;;;;;4.67;100.00;61298.78;5114594;28;20484;-77
2022/03/07 08:21:42;;;;;;;17.03;6.80;;;;;;;4.67;100.00;61299.31;5114431;28;20444;-76
2022/03/07 08:24:10;;;;;;;13.40;6.67;;;;;;;4.53;100.00;61283.91;5114539;28;20443;-75
2022/03/07 08:26:38;;;;;;;8.70;5.10;;;;;;;2.94;100.00;61120.88;5116540;28;20468;-76
2022/03/07 08:29:09;;;;;;;6.93;4.50;;;;;;;3.22;100.00;61151.16;5112587;28;21017;-77
2022/03/07 08:31:45;;;;;;;11.33;5.30;;;;;;;4.17;100.00;61246.63;5114512;28;20441;-75
2022/03/07 08:34:17;;;;;;;15.30;7.27;;;;;;;4.35;100.00;61267.25;5096599;28;20444;-74
2022/03/07 08:37:21;;;;;;;14.17;6.37;;;;;;;4.48;100.00;61284.13;5114390;28;20506;-79
2022/03/07 08:42:55;;;;;;;10.20;5.67;;;;;;;2.91;100.00;61112.63;5113800;28;20465;-77
2022/03/07 08:48:06;;;;;;;10.17;6.70;;;;;;;4.12;100.00;61243.84;5114146;28;20486;-77
2022/03/07 08:53:43;;;;;;;8.93;5.70;;;;;;;4.36;100.00;61265.78;5115827;28;20440;-78
2022/03/07 08:56:13;;;;;;;9.63;6.20;;;;;;;3.77;100.00;61204.06;5116661;28;20440;-77
2022/03/07 09:01:24;;;;;;;11.57;6.97;;;;;;;2.66;100.00;61086.09;5113024;28;20456;-77
2022/03/07 09:03:55;;;;;;;15.90;8.73;;;;;;;4.20;100.00;61247.31;5115722;28;20441;-76
2022/03/07 09:09:30;;;;;;;46.87;22.03;;;;;;;4.13;100.00;61242.38;5114631;28;20448;-77
2022/03/07 09:14:42;;;;;;;26.67;13.30;;;;;;;3.21;100.00;61147.03;5114350;28;20850;-76
2022/03/07 09:17:17;;;;;;;11.43;7.00;;;;;;;3.95;100.00;61227.72;5096794;28;20448;-76
2022/03/07 09:19:50;;;;;;;14.77;8.27;;;;;;;4.01;100.00;61229.59;5114162;28;20480;-76
2022/03/07 09:22:22;;;;;;;11.97;7.07;;;;;;;3.53;100.00;61176.03;5113750;28;20598;-78
2022/03/07 09:25:16;;;;;;;11.93;6.73;;;;;;;4.20;100.00;61249.84;5114363;28;20445;-77
2022/03/07 09:27:56;;;;;;;12.50;7.60;;;;;;;4.18;100.00;61252.75;5114213;28;20502;-76
2022/03/07 09:30:25;;;;;;;11.90;7.13;;;;;;;4.03;100.00;61233.72;5114994;28;20448;-76
2022/03/07 09:33:03;;;;;;;10.40;6.53;;;;;;;3.98;100.00;61226.44;5114074;28;20428;-77
2022/03/07 09:35:39;;;;;;;9.63;5.90;;;;;;;3.80;100.00;61209.78;5114470;28;20932;-77
2022/03/07 09:38:09;;;;;;;8.97;5.50;;;;;;;4.05;100.00;61233.88;5114141;28;20486;-77
2022/03/07 09:40:57;;;;;;;6.87;4.77;;;;;;;4.09;100.00;61238.13;5113705;28;20488;-75
2022/03/07 09:43:34;;;;;;;11.23;5.17;;;;;;;4.20;100.00;61249.84;5113153;28;20445;-77
2022/03/07 09:46:02;;;;;;;8.57;5.20;;;;;;;3.93;100.00;61221.09;5112831;28;20487;-77
2022/03/07 09:48:30;;;;;;;9.33;6.00;;;;;;;4.07;100.00;61235.44;5113119;28;20457;-77
2022/03/07 09:51:00;;;;;;;8.83;5.47;;;;;;;4.09;100.00;61238.13;5113092;28;20445;-74
2022/03/07 09:53:31;;;;;;;7.27;3.70;;;;;;;4.46;100.00;61276.97;5113402;28;20433;-77
2022/03/07 09:56:05;;;;;;;7.80;4.53;;;;;;;4.31;100.00;61263.00;5113154;28;20429;-75
2022/03/07 10:01:38;;;;;;;5.93;4.27;;;;;;;4.47;100.00;61278.03;5112888;28;20432;-78
2022/03/07 10:04:10;;;;;;;6.77;5.07;;;;;;;4.20;100.00;61249.84;5112250;28;20453;-78
2022/03/07 10:06:57;;;;;;;6.37;4.23;;;;;;;4.39;100.00;61274.03;5112890;28;20432;-75
2022/03/07 10:09:29;;;;;;;7.93;4.83;;;;;;;4.65;100.00;61297.19;5113008;28;20433;-76
2022/03/07 10:12:20;;;;;;;8.57;4.30;;;;;;;4.60;100.00;61288.81;5112534;28;21018;-76
2022/03/07 10:17:41;;;;;;;7.13;4.70;;;;;;;4.49;100.00;61279.63;5110946;28;20444;-76
2022/03/07 10:20:12;;;;;;;7.53;4.97;;;;;;;3.80;100.00;61209.25;5114655;28;20482;-75
2022/03/07 10:22:48;;;;;;;10.33;5.33;;;;;;;4.12;100.00;61243.84;5112482;28;20914;-75
2022/03/07 10:25:18;;;;;;;7.40;5.30;;;;;;;4.37;100.00;61269.38;5112523;28;20508;-78
2022/03/07 10:27:49;;;;;;;7.37;5.20;;;;;;;4.52;100.00;61285.34;5111516;28;20477;-78
2022/03/07 10:30:22;;;;;;;8.57;5.30;;;;;;;4.35;100.00;61264.72;5114770;28;20436;-75
2022/03/07 10:33:05;;;;;;;9.47;5.40;;;;;;;4.58;100.00;61289.22;5094493;28;20449;-74
2022/03/07 10:35:35;;;;;;;9.60;5.60;;;;;;;4.70;100.00;61299.47;5112173;28;20461;-75
2022/03/07 10:38:06;;;;;;;10.40;6.83;;;;;;;4.90;100.00;61328.31;5114103;28;20445;-79
2022/03/07 10:40:52;;;;;;;17.23;10.20;;;;;;;4.79;100.00;61311.56;5112248;28;20537;-76
2022/03/07 10:43:25;;;;;;;20.80;12.43;;;;;;;4.68;100.00;61299.84;5113507;28;20447;-77
2022/03/07 10:45:56;;;;;;;21.77;12.50;;;;;;;4.68;100.00;61304.91;5112243;28;20577;-78
2022/03/07 10:48:28;;;;;;;22.30;12.70;;;;;;;4.03;100.00;61236.78;5112144;28;20437;-78
2022/03/07 10:50:57;;;;;;;22.47;13.03;;;;;;;4.43;100.00;61275.78;5094026;28;20439;-75
2022/03/07 10:53:27;;;;;;;24.50;13.97;;;;;;;4.14;100.00;61243.44;5093934;28;20443;-76
2022/03/07 10:56:02;;;;;;;24.13;12.43;;;;;;;3.94;100.00;61222.16;5111935;28;21018;-76
2022/03/07 10:58:35;;;;;;;21.87;13.63;;;;;;;4.39;100.00;61269.50;5093592;28;20826;-75
2022/03/07 11:01:04;;;;;;;22.03;12.63;;;;;;;4.07;100.00;61241.03;5111664;28;20605;-75
2022/03/07 11:03:35;;;;;;;22.97;12.57;;;;;;;3.87;100.00;61219.75;5111109;28;20994;-77
2022/03/07 11:06:04;;;;;;;20.47;12.43;;;;;;;4.07;100.00;61246.06;5112335;28;20429;-76
2022/03/07 11:08:34;;;;;;;21.20;11.97;;;;;;;4.31;100.00;61260.47;5111848;28;20463;-76
2022/03/07 11:11:06;;;;;;;21.90;11.30;;;;;;;3.91;100.00;61221.50;5112260;28;20498;-76
2022/03/07 11:13:37;;;;;;;21.93;11.17;;;;;;;3.53;100.00;61181.06;5111884;28;20541;-75
2022/03/07 11:16:08;;;;;;;24.07;11.73;;;;;;;4.68;100.00;61302.38;5093811;28;20461;-76
2022/03/07 11:18:37;;;;;;;18.07;10.40;;;;;;;4.42;100.00;61272.19;5112312;28;20494;-75
2022/03/07 11:21:06;;;;;;;18.30;10.00;;;;;;;4.37;100.00;61266.88;5112746;28;21063;-77
2022/03/07 11:23:38;;;;;;;16.20;8.47;;;;;;;3.96;100.00;61224.28;5115855;28;20498;-75
2022/03/07 11:26:08;;;;;;;16.40;9.17;;;;;;;3.30;100.00;61159.66;5116035;28;20549;-76
2022/03/07 11:28:40;;;;;;;13.47;8.10;;;;;;;4.43;100.00;61275.78;5115769;28;20476;-76
2022/03/07 11:31:19;;;;;;;15.40;8.80;;;;;;;4.24;100.00;61254.09;5116713;28;20527;-75
2022/03/07 11:33:50;;;;;;;13.80;8.20;;;;;;;3.91;100.00;61221.50;5115895;28;20428;-77
2022/03/07 11:36:22;;;;;;;12.03;7.17;;;;;;;4.29;100.00;61264.44;5115687;28;20445;-77
2022/03/07 11:38:57;;;;;;;13.77;8.03;;;;;;;4.28;100.00;61263.38;5115813;28;20436;-76
2022/03/07 11:41:27;;;;;;;17.70;9.20;;;;;;;3.27;100.00;61151.44;5115712;28;20486;-77
2022/03/07 11:44:02;;;;;;;18.83;10.43;;;;;;;4.10;100.00;61239.19;5115522;28;20939;-77
2022/03/07 11:46:32;;;;;;;13.93;8.97;;;;;;;4.18;100.00;61247.72;5116078;28;20432;-77
2022/03/07 11:49:28;;;;;;;11.90;7.43;;;;;;;3.88;100.00;61217.78;5115198;28;20441;-76
2022/03/07 11:51:59;;;;;;;13.50;8.03;;;;;;;3.88;100.00;61215.78;5115568;28;20456;-75
2022/03/07 11:54:31;;;;;;;15.23;8.10;;;;;;;3.97;100.00;61225.34;5115091;28;20541;-75
2022/03/07 11:57:09;;;;;;;13.93;6.97;;;;;;;2.52;100.00;61072.25;5115126;28;20453;-77
2022/03/07 12:00:00;;;;;;;8.70;6.17;;;;;;;4.04;100.00;61232.81;5114863;28;20582;-77
2022/03/07 12:02:41;;;;;;;9.00;5.83;;;;;;;3.78;100.00;61210.19;5115418;28;21034;-76
2022/03/07 12:05:26;;;;;;;9.60;6.10;;;;;;;3.97;100.00;61227.34;5114921;28;20541;-77
2022/03/07 12:11:04;;;;;;;10.10;7.03;;;;;;;4.10;100.00;61241.72;5114526;28;20429;-75
2022/03/07 12:13:33;;;;;;;10.07;7.23;;;;;;;3.83;100.00;61212.97;5111759;28;20480;-76
2022/03/07 12:16:23;;;;;;;12.93;8.23;;;;;;;4.23;100.00;61258.06;5114962;28;20514;-77
2022/03/07 12:18:54;;;;;;;20.37;11.60;;;;;;;4.26;100.00;61258.75;5115206;28;20430;-77